Tiempo atmosférico en la estación meteorológica de Camaleño, Fuente De, Cantabria (1090 m.)



Fecha
DESCASC
Temp. máxima en grados centígrados (hora)
DESCASC
Temp. mínima en grados centígrados (hora)
DESCASC
Temp. media en grados centígrados
DESCASC
Racha de viento máxima en m/sg (hora)
DESCASC
Velocidad máxima media en intervalos de 10 minutos(hora)
DESCASC
Precipitaciones diarias en mm
DESCASC
Precipitaciones de 00:00 a 06:00 en mm
DESCASC
Precipitaciones de 06:00 a 12:00 en mm
DESCASC
Precipitaciones de 12:00 a 18:00 en mm
DESCASC
Precipitaciones de 18:00 a 24:00 en mm
DESCASC
18-01-2018 14.2 (14:40) -0.2 (02:10) 7 11.39 (12:50) 4.17 (12:50) 0 0 0 0 0
17-01-2018 10.1 (00:00) 0.3 (23:40) 5.2 11.39 (05:30) 4.17 (07:30) 0 0 0 0 0
16-01-2018 -- (--) -- (--) -- -- (--) -- (--) -- 0 -- 0 0
15-01-2018 12.1 (23:59) -2 (05:40) 5.1 19.17 (21:00) 5.28 (21:00) 0.4 0 0 0.4 0
14-01-2018 6.4 (14:50) -1.9 (-00:0) 2.3 6.11 (18:10) 3.33 (20:10) 0 0 0 0 0
13-01-2018 6.1 (02:40) -0.4 (00:00) 2.8 7.5 (06:20) 2.78 (06:00) 9.4 0 6 2.8 0.6
12-01-2018 5.7 (14:40) -2.9 (-00:0) 1.4 2.5 (23:40) 1.11 (00:20) 0 0 0 0 0
11-01-2018 4.7 (21:50) -0.9 (-00:0) 1.9 11.11 (13:10) 3.89 (21:30) 23.2 4.4 7.8 5.8 5.2
10-01-2018 5.4 (15:10) 0.6 (00:00) 3 12.5 (15:20) 3.61 (10:30) 1.8 0 0 1.6 0.2
09-01-2018 5 (16:40) 0.4 (00:00) 2.7 11.39 (16:10) 4.72 (17:00) 4.6 0 0 4.6 0
08-01-2018 7.2 (14:40) -2.3 (-00:0) 2.4 3.33 (15:10) 1.39 (15:10) 0 0 0 0 0
07-01-2018 3.8 (12:50) -1 (-00:0) 1.4 -- (--) -- (--) 11.6 8.6 1.2 1.8 0
06-01-2018 0.3 (00:00) -1 (-00:0) -0.3 2.78 (06:00) 1.11 (06:00) 7.2 0.6 0.4 1 5.2
05-01-2018 9.7 (02:10) 0.3 (00:00) 5 11.67 (02:20) 4.17 (04:40) 13.6 0 5.6 5.6 2.4
04-01-2018 12.9 (00:00) 8.6 (22:20) 10.8 10.28 (06:00) 3.89 (13:00) 0 0 0 0 0
03-01-2018 14.4 (06:30) 8 (00:00) 11.2 8.89 (17:30) 3.61 (06:20) 0 0 0 0 0
02-01-2018 11.8 (14:50) 5.2 (00:00) 8.5 8.61 (16:40) 3.61 (10:40) 10 0.8 5.8 3.4 0
01-01-2018 10.1 (15:40) -0.1 (00:00) 5 12.22 (20:10) 3.61 (20:10) 9.8 0 0 4.2 5.6
31-12-2017 9.6 (00:10) 1.2 (00:00) 5.4 13.33 (09:50) 4.17 (01:00) 8.2 0 0 7.8 0.4
30-12-2017 11.7 (14:50) 6 (00:00) 8.8 10.56 (23:30) 4.72 (21:10) 0 0 0 0 0
29-12-2017 11.7 (13:10) 2.9 (00:00) 7.3 10.56 (10:50) 3.61 (10:50) 20.6 5.8 14.8 0 0
28-12-2017 7.2 (16:30) 0 (00:00) 3.6 15 (15:20) 5.56 (17:20) 23.2 4.8 17.6 0.8 0
27-12-2017 2.8 (03:30) 0 (00:00) 1.4 11.11 (00:20) 3.33 (02:00) 31.2 14.2 8.2 6 2.8
26-12-2017 5 (21:30) -0.4 (00:00) 2.3 12.5 (18:10) 3.89 (18:10) 12 0.2 0 2.4 9.4
25-12-2017 7.4 (11:30) 2.4 (00:00) 4.9 12.5 (09:10) 5.28 (10:10) 3.2 0 0 0 3.2
24-12-2017 13.6 (14:50) 2.5 (00:00) 8.1 3.33 (14:40) 1.39 (13:20) 0 0 0 0 0

Gráficas

Temp. máximas Temp. mínimas Temp. medias Precipitaciones Rachas de viento máximas Velocidades máximas media en intervalos de 10 minutos

Datos horarios

Fecha y hora oficial Temperatura (ºC) Velocidad del viento (km/h) Dirección del viento Racha (km/h) Dirección de racha Precipitación (mm) Presión (hPa) Tendencia (hPa) Humedad (%)
2018-01-22 23:00:00 5 0 Calma 4 Oeste 0 -- -- 90
2018-01-22 22:00:00 5.5 0 Calma 3 Sudoeste 0 -- -- 89
2018-01-22 21:00:00 6 0 Calma 4 Oeste 0 -- -- 88
2018-01-22 20:00:00 6.5 0 Calma 4 Sudoeste 0 -- -- 85
2018-01-22 19:00:00 7.6 0 Calma 6 Sudoeste 0 -- -- 80
2018-01-22 18:00:00 10.1 4 Sudoeste 22 Oeste 0 -- -- 70
2018-01-22 17:00:00 10.7 4 Sur 23 Sudoeste 0 -- -- 69
2018-01-22 16:00:00 12.3 3 Sudoeste 13 Sudoeste 0 -- -- 66
2018-01-22 15:00:00 12.8 4 Oeste 11 Sudoeste 0 -- -- 60
2018-01-22 14:00:00 12.3 3 Sur 15 Sudeste 0 -- -- 61
2018-01-22 13:00:00 11.1 3 Sudeste 10 Sur 0 -- -- 68
2018-01-22 12:00:00 8.3 3 Sudeste 9 Nordeste 0 -- -- 82
2018-01-22 11:00:00 5.1 3 Noroeste 6 Este 0 -- -- 93
2018-01-22 10:00:00 4.1 0 Calma 2 Oeste 0 -- -- 87
2018-01-22 09:00:00 3.6 0 Calma 4 Sudoeste 0 -- -- 83
2018-01-22 08:00:00 3.9 0 Calma 8 Noroeste 0 -- -- 74
2018-01-22 07:00:00 4.1 0 Calma 8 Nordeste 0 -- -- 75
2018-01-22 06:00:00 4.2 0 Calma 6 Sudoeste 0 -- -- 75
2018-01-22 05:00:00 4.1 2 Sudoeste 6 Oeste 0 -- -- 81
2018-01-22 04:00:00 4.3 3 Sur 7 Noroeste 0 -- -- 85
2018-01-22 03:00:00 4.7 2 Oeste 5 Oeste 0 -- -- 86
2018-01-22 02:00:00 4.7 0 Calma 4 Noroeste 0 -- -- 88
2018-01-22 01:00:00 5 0 Calma 6 Oeste 0 -- -- 88
2018-01-22 00:00:00 4.9 0 Calma 4 Oeste 0 -- -- 87
2018-01-21 23:00:00 5.3 0 Calma 4 Oeste 0 -- -- 85
2018-01-21 22:00:00 5.8 2 Oeste 6 Sudoeste 0 -- -- 84
2018-01-21 21:00:00 6.2 0 Calma 4 Sudoeste 0 -- -- 82
2018-01-21 20:00:00 6.6 0 Calma 5 Oeste 0 -- -- 78
2018-01-21 19:00:00 7.8 0 Calma 5 Oeste 0 -- -- 76
2018-01-21 18:00:00 10 4 Noroeste 17 Sudoeste 0 -- -- 66
2018-01-21 17:00:00 11.8 7 Sur 19 Sur 0 -- -- 56
2018-01-21 16:00:00 13 8 Sur 24 Sur 0 -- -- 52
2018-01-21 15:00:00 14.2 8 Sudoeste 30 Oeste 0 -- -- 53
2018-01-21 14:00:00 13.3 8 Sur 25 Sudoeste 0 -- -- 57
2018-01-21 13:00:00 13.1 12 Sudoeste 29 Sudoeste 0 -- -- 60
2018-01-21 12:00:00 12.5 5 Sudoeste 23 Sudoeste 0 -- -- 67
2018-01-21 11:00:00 10.7 4 Noroeste 31 Oeste 0 -- -- 74
2018-01-21 10:00:00 9.2 6 Noroeste 26 Oeste 0 -- -- 84
2018-01-21 09:00:00 9.1 8 Oeste 23 Oeste 0 -- -- 84
2018-01-21 08:00:00 8.9 11 Oeste 23 Oeste 0 -- -- 85
2018-01-21 07:00:00 7.8 3 Noroeste 10 Oeste 0.6 -- -- 98
2018-01-21 06:00:00 7.8 2 Sudoeste 9 Noroeste 0.2 -- -- 97
2018-01-21 05:00:00 8.3 2 Sur 23 Sudoeste 0.6 -- -- 94
2018-01-21 04:00:00 9.3 5 Sudoeste 23 Sudoeste 0.2 -- -- 85
2018-01-21 03:00:00 10.2 5 Sur 24 Noroeste 0 -- -- 78
2018-01-21 02:00:00 10 10 Oeste 24 Noroeste 0.6 -- -- 78
2018-01-21 01:00:00 9.5 13 Sudoeste 35 Sur 0.4 -- -- 81
2018-01-21 00:00:00 8.6 4 Oeste 26 Sur 2.2 -- -- 91
2018-01-20 23:00:00 8.4 7 Sudoeste 23 Sudoeste 0.8 -- -- 92
2018-01-20 22:00:00 8.3 3 Sudoeste 22 Noroeste 1.6 -- -- 93
2018-01-20 21:00:00 9.1 6 Sudoeste 21 Oeste 0.6 -- -- 86
2018-01-20 20:00:00 9.2 7 Sudoeste 24 Sudeste 0.4 -- -- 83
2018-01-20 19:00:00 7.8 5 Sudoeste 15 Sudoeste 1.4 -- -- 97
2018-01-20 18:00:00 8.6 6 Sudoeste 22 Sur 0.6 -- -- 90
2018-01-20 17:00:00 8.9 7 Sudoeste 27 Sudoeste 0.4 -- -- 89
2018-01-20 16:00:00 9.3 10 Sudoeste 23 Oeste 0.2 -- -- 84
2018-01-20 15:00:00 9.3 10 Sur 30 Sudoeste 0.4 -- -- 83
2018-01-20 14:00:00 9.3 10 Sur 32 Sur 0.4 -- -- 81
2018-01-20 13:00:00 9.7 15 Sudoeste 41 Sudoeste 0 -- -- 77
2018-01-20 12:00:00 10.4 15 Sudoeste 39 Sudoeste 0 -- -- 69
2018-01-20 11:00:00 10.4 13 Sudoeste 40 Sudoeste 0 -- -- 57
2018-01-20 10:00:00 9.1 10 Sudoeste 24 Sudoeste 0 -- -- 50
2018-01-20 09:00:00 10 7 Sudeste 32 Sudoeste 0 -- -- 36
2018-01-20 08:00:00 9.8 9 Sudoeste 32 Sudoeste 0 -- -- 31
2018-01-20 07:00:00 9.1 11 Sudoeste 30 Sudoeste 0 -- -- 30
2018-01-20 06:00:00 9 7 Sudoeste 30 Sudoeste 0 -- -- 33
2018-01-20 05:00:00 8.5 10 Sudoeste 28 Sudoeste 0 -- -- 29
2018-01-20 04:00:00 8.2 9 Sudoeste 28 Sudoeste 0 -- -- 33
2018-01-20 03:00:00 7.4 7 Sudoeste 29 Sudoeste 0 -- -- 36
2018-01-20 02:00:00 7.1 14 Oeste 31 Sudoeste 0 -- -- 39
2018-01-20 01:00:00 0.8 3 Este 10 Sudoeste 0 -- -- 87
2018-01-20 00:00:00 0.7 0 Calma 5 Sudoeste 0 -- -- 87
2018-01-19 23:00:00 1 0 Calma 8 Nordeste 0 -- -- 86
2018-01-19 22:00:00 1.3 0 Calma 5 Noroeste 0 -- -- 84
2018-01-19 21:00:00 1.9 2 Sudoeste 5 Oeste 0 -- -- 81
2018-01-19 20:00:00 2.5 3 Oeste 10 Oeste 0 -- -- 78
2018-01-19 19:00:00 3.5 2 Sudoeste 9 Oeste 0 -- -- 75
2018-01-19 18:00:00 5.5 11 Sudoeste 37 Oeste 0 -- -- 66
2018-01-19 17:00:00 6.5 13 Sudoeste 36 Sur 0 -- -- 59
2018-01-19 16:00:00 6.2 16 Oeste 46 Oeste 0 -- -- 62
2018-01-19 15:00:00 7.2 20 Oeste 43 Sudoeste 0 -- -- 62
2018-01-19 14:00:00 8 16 Sudoeste 38 Sudoeste 0 -- -- 61
2018-01-19 13:00:00 9 13 Sudoeste 30 Sudoeste 0 -- -- 62
2018-01-19 12:00:00 9.2 6 Oeste 29 Sudoeste 0.2 -- -- 61
2018-01-19 11:00:00 7.6 11 Oeste 30 Sudoeste 0 -- -- 74
2018-01-19 10:00:00 8.1 10 Sudoeste 34 Norte 0 -- -- 65
2018-01-19 09:00:00 7.7 10 Norte 42 Noroeste 0 -- -- 58
2018-01-19 08:00:00 7 11 Oeste 32 Oeste 0 -- -- 71
2018-01-19 07:00:00 6.8 13 Sudoeste 35 Sudoeste 0 -- -- 76
2018-01-19 06:00:00 2.4 3 Nordeste 8 Norte 0 -- -- 91
2018-01-19 05:00:00 2.2 3 Norte 8 Nordeste 0 -- -- 91
2018-01-19 04:00:00 2.3 2 Noroeste 6 Sudoeste 0 -- -- 91
2018-01-19 03:00:00 3.1 0 Calma 5 Oeste 0 -- -- 90
2018-01-19 02:00:00 3.3 2 Sudoeste 4 Oeste 0 -- -- 91
2018-01-19 01:00:00 3.5 0 Calma 4 Oeste 0 -- -- 91
2018-01-19 00:00:00 3.5 0 Calma 4 Oeste 0 -- -- 91
2018-01-18 23:00:00 2.8 0 Calma 4 Noroeste 0 -- -- 93
2018-01-18 22:00:00 2.4 0 Calma 4 Noroeste 0 -- -- 91
2018-01-18 21:00:00 3.3 0 Calma 3 Sur 0 -- -- 88
2018-01-18 20:00:00 4.3 0 Calma 3 Sudoeste 0 -- -- 82
2018-01-18 19:00:00 5.8 0 Calma 6 Noroeste 0 -- -- 74
2018-01-18 18:00:00 9 4 Sur 25 Sur 0 -- -- 60
2018-01-18 17:00:00 11 6 Sur 24 Sur 0 -- -- 49
2018-01-18 16:00:00 12.4 6 Sudoeste 36 Noroeste 0 -- -- 45
2018-01-18 15:00:00 14 10 Oeste 31 Sudoeste 0 -- -- 41
2018-01-18 14:00:00 13.3 5 Oeste 35 Noroeste 0 -- -- 43
2018-01-18 13:00:00 13.4 12 Oeste 41 Noroeste 0 -- -- 45
2018-01-18 12:00:00 12 5 Noroeste 21 Norte 0 -- -- 50
2018-01-18 11:00:00 7.6 0 Calma 3 Noroeste 0 -- -- 65
2018-01-18 10:00:00 5.6 0 Calma 6 Noroeste 0 -- -- 70
2018-01-18 09:00:00 4.5 2 Oeste 6 Noroeste 0 -- -- 71
2018-01-18 08:00:00 4.4 2 Noroeste 5 Oeste 0 -- -- 70
2018-01-18 07:00:00 4.3 2 Sudoeste 8 Sudoeste 0 -- -- 69
2018-01-18 06:00:00 4.4 4 Sur 10 Norte 0 -- -- 68
2018-01-18 05:00:00 3.6 2 Sudoeste 8 Noroeste 0 -- -- 72
2018-01-18 04:00:00 1.4 2 Oeste 8 Oeste 0 -- -- 80
2018-01-18 03:00:00 0.4 2 Sudoeste 6 Este 0 -- -- 81
2018-01-18 02:00:00 -0.1 0 Calma 5 Norte 0 -- -- 85
2018-01-18 01:00:00 0 0 Calma 3 Norte 0 -- -- 76
2018-01-18 00:00:00 0.5 3 Sur 4 Este 0 -- -- 79
2018-01-17 23:00:00 0.5 0 Calma 5 Nordeste 0 -- -- 80
2018-01-17 22:00:00 0.7 2 Oeste 4 Sudoeste 0 -- -- 85
2018-01-17 21:00:00 1.1 0 Calma 4 Sur 0 -- -- 87
2018-01-17 20:00:00 1.6 0 Calma 4 Sudoeste 0 -- -- 84
2018-01-17 19:00:00 2.3 0 Calma 7 Sudoeste 0 -- -- 78
2018-01-17 18:00:00 3.8 0 Calma 7 Sudeste 0 -- -- 71
2018-01-17 17:00:00 5.5 0 Calma 9 Sudeste 0 -- -- 64
2018-01-17 16:00:00 7.7 2 Sudeste 11 Sudeste 0 -- -- 51
2018-01-17 15:00:00 9 3 Sudeste 14 Noroeste 0 -- -- 46
2018-01-17 14:00:00 7.8 5 Norte 28 Oeste 0 -- -- 56
2018-01-17 13:00:00 7.1 10 Sudoeste 33 Sudoeste 0 -- -- 57
2018-01-17 12:00:00 5.5 12 Sudoeste 31 Sudoeste 0 -- -- 66
2018-01-17 11:00:00 5.5 9 Sudoeste 33 Noroeste 0 -- -- 65
2018-01-17 10:00:00 5.2 7 Norte 32 Sur 0 -- -- 58
2018-01-17 09:00:00 4.6 6 Norte 31 Oeste 0 -- -- 64
2018-01-17 08:00:00 4.9 12 Oeste 33 Oeste 0 -- -- 68
2018-01-17 07:00:00 5.3 14 Oeste 33 Sudoeste 0 -- -- 65
2018-01-17 06:00:00 6 13 Sudoeste 41 Sudoeste 0 -- -- 65
2018-01-17 05:00:00 6.5 10 Sudoeste 33 Oeste 0 -- -- 67
2018-01-17 04:00:00 6.8 10 Sudoeste 33 Sudoeste 0 -- -- 62
2018-01-17 03:00:00 7.7 9 Sur 31 Sudoeste 0 -- -- 58
2018-01-17 02:00:00 8.4 9 Sur 25 Sur 0 -- -- 65
2018-01-17 01:00:00 9.1 8 Sudoeste 26 Norte 0 -- -- 62
2018-01-17 00:00:00 10.1 7 Sudoeste 35 Sudeste 0 -- -- 59
2018-01-16 23:00:00 10.3 8 Sudeste 33 Sudoeste 0 -- -- 58
2018-01-16 22:00:00 10.9 9 Sudoeste 30 Sur 0 -- -- 58
2018-01-16 21:00:00 11 11 Sur 33 Sur 0 -- -- 59
2018-01-16 20:00:00 11.3 7 Sudoeste 26 Sur 0 -- -- 53
2018-01-16 19:00:00 11 6 Sudoeste 21 Sudoeste 0 -- -- 57
2018-01-16 18:00:00 11.7 6 Sur 28 Sudoeste 0 -- -- 56
2018-01-16 17:00:00 12.2 9 Sudoeste 24 Oeste 0 -- -- 52
2018-01-16 16:00:00 12.7 10 Sur 27 Sur 0 -- -- 54
2018-01-16 15:00:00 14.4 6 Sudoeste 30 Sudoeste 0 -- -- 49
2018-01-16 14:00:00 13.6 12 Sudoeste 36 Sudoeste 0 -- -- 52
2018-01-16 13:00:00 14.1 7 Sudoeste -- -- -- -- -- 52
2018-01-16 12:00:00 -- -- -- -- -- -- -- -- --
2018-01-16 11:00:00 11.7 10 Oeste 35 Oeste 0 -- -- 61
2018-01-16 10:00:00 11.4 15 Oeste 39 Sudoeste 0 -- -- 62
2018-01-16 09:00:00 11.6 15 Sudoeste 39 Sudoeste 0 -- -- 62
2018-01-16 08:00:00 11.1 13 Sudoeste 32 Sudoeste 0 -- -- 66
2018-01-16 07:00:00 11.1 12 Sudoeste 36 Sudoeste 0 -- -- 64
2018-01-16 06:00:00 11.1 12 Sudoeste 34 Sudoeste 0 -- -- 62
2018-01-16 05:00:00 12 11 Sudoeste 36 Sudoeste 0 -- -- 57
2018-01-16 04:00:00 11.5 15 Oeste 58 Sudoeste 0 -- -- 54
2018-01-16 03:00:00 10.9 15 Oeste 42 Sudoeste 0 -- -- 51
2018-01-16 02:00:00 11.8 11 Oeste 35 Oeste 0 -- -- 48
2018-01-16 01:00:00 11.9 8 Noroeste 42 Noroeste 0 -- -- 49
2018-01-16 00:00:00 12.1 11 Norte 41 Noroeste 0 -- -- 54
2018-01-15 23:00:00 11.6 12 Noroeste 53 Noroeste 0 -- -- 58
2018-01-15 22:00:00 11.3 9 Norte 50 Noroeste 0 -- -- 63
2018-01-15 21:00:00 11.1 19 Noroeste 69 Noroeste 0 -- -- 60
2018-01-15 20:00:00 10.7 12 Norte 43 Noroeste 0 -- -- 69
2018-01-15 19:00:00 10.7 12 Norte 50 Noroeste 0 -- -- 64
2018-01-15 18:00:00 8.4 5 Sudeste 36 Sudoeste 0.2 -- -- 77
2018-01-15 17:00:00 8 9 Oeste 37 Noroeste 0.2 -- -- 80
2018-01-15 16:00:00 8 8 Oeste 18 Noroeste 0 -- -- 68
2018-01-15 15:00:00 9.5 5 Oeste 16 Oeste 0 -- -- 45
2018-01-15 14:00:00 7.9 3 Norte 16 Noroeste 0 -- -- 34
2018-01-15 13:00:00 7.4 4 Sudeste 21 Sudeste 0 -- -- 29
2018-01-15 12:00:00 5.5 3 Sudoeste 9 Noroeste 0 -- -- 30
2018-01-15 11:00:00 2.1 3 Oeste 9 Nordeste 0 -- -- 52
2018-01-15 10:00:00 -0.1 0 Calma 5 Noroeste 0 -- -- 73
2018-01-15 09:00:00 -0.7 2 Oeste 4 Oeste 0 -- -- 74
2018-01-15 08:00:00 -1.3 0 Calma 4 Oeste 0 -- -- 78
2018-01-15 07:00:00 -1.3 0 Calma 7 Sudoeste 0 -- -- 83
2018-01-15 06:00:00 -1.8 0 Calma 5 Sudoeste 0 -- -- 88
2018-01-15 05:00:00 -1.9 2 Norte 5 Este 0 -- -- 88
2018-01-15 04:00:00 -1.3 0 Calma 3 Sur 0 -- -- 90
2018-01-15 03:00:00 -0.9 4 Oeste 7 Oeste 0 -- -- 93
2018-01-15 02:00:00 -0.5 0 Calma 5 Oeste 0 -- -- 93
2018-01-15 01:00:00 0.1 0 Calma 7 Oeste 0 -- -- 93
2018-01-15 00:00:00 0.6 2 Sudoeste 5 Noroeste 0 -- -- 93
2018-01-14 23:00:00 0.8 0 Calma 4 Oeste 0 -- -- 93
2018-01-14 22:00:00 1.6 0 Calma 13 Oeste 0 -- -- 89
2018-01-14 21:00:00 2.4 2 Sudoeste 20 Oeste 0 -- -- 81
2018-01-14 20:00:00 2.4 8 Noroeste 21 Oeste 0 -- -- 80
2018-01-14 19:00:00 2.4 3 Sudoeste 22 Oeste 0 -- -- 80
2018-01-14 18:00:00 2.5 0 Calma 9 Sur 0 -- -- 80
2018-01-14 17:00:00 3.5 3 Sudeste 13 Este 0 -- -- 72
2018-01-14 16:00:00 4.8 5 Oeste 19 Oeste 0 -- -- 62
2018-01-14 15:00:00 6.1 7 Sudoeste 19 Sudoeste 0 -- -- 58
2018-01-14 14:00:00 4.6 4 Sudeste 12 Sudoeste 0 -- -- 61
2018-01-14 13:00:00 4.7 3 Noroeste 13 Sudoeste 0 -- -- 61
2018-01-14 12:00:00 2.8 5 Oeste 14 Oeste 0 -- -- 68
2018-01-14 11:00:00 1.2 8 Sudoeste 19 Sudoeste 0 -- -- 79
2018-01-14 10:00:00 -1.2 2 Sudoeste 5 Noroeste 0 -- -- 87
2018-01-14 09:00:00 -1.9 0 Calma 4 Sur 0 -- -- 90
2018-01-14 08:00:00 -1.4 2 Sudoeste 7 Sudoeste 0 -- -- 88
2018-01-14 07:00:00 -1.3 0 Calma 8 Sudoeste 0 -- -- 88
2018-01-14 06:00:00 -1.4 0 Calma 6 Sudoeste 0 -- -- 91
2018-01-14 05:00:00 -1.2 0 Calma 5 Oeste 0 -- -- 94
2018-01-14 04:00:00 -0.5 2 Oeste 12 Sudeste 0 -- -- 88
2018-01-14 03:00:00 -1 3 Sur 9 Este 0 -- -- 92
2018-01-14 02:00:00 -0.9 3 Oeste 6 Este 0 -- -- 94
2018-01-14 01:00:00 -0.4 2 Oeste 9 Sudoeste 0 -- -- 93
2018-01-14 00:00:00 -0.4 3 Oeste 9 Sudoeste 0 -- -- 96
2018-01-13 23:00:00 0.1 2 Sur 7 Sudeste 0 -- -- 99
2018-01-13 22:00:00 0.7 3 Oeste 8 Oeste 0 -- -- 99
2018-01-13 21:00:00 0.7 3 Oeste 11 Noroeste 0 -- -- 100
2018-01-13 20:00:00 0.8 0 Calma 7 Oeste 0.4 -- -- 100
2018-01-13 19:00:00 1 0 Calma 4 Oeste 0.2 -- -- 99
2018-01-13 18:00:00 1.6 0 Calma 4 Sur 0.2 -- -- 97
2018-01-13 17:00:00 2 0 Calma 3 Oeste 0.6 -- -- 95
2018-01-13 16:00:00 2.4 0 Calma 3 Sur 0.4 -- -- 95
2018-01-13 15:00:00 2.9 0 Calma 4 Noroeste 0.2 -- -- 93
2018-01-13 14:00:00 2.9 2 Noroeste 4 Noroeste 0.8 -- -- 93
2018-01-13 13:00:00 2.3 2 Noroeste 5 Noroeste 0.6 -- -- 97
2018-01-13 12:00:00 1.7 0 Calma 6 Oeste 1.2 -- -- 98
2018-01-13 11:00:00 1.4 0 Calma 5 Nordeste 1.6 -- -- 98
2018-01-13 10:00:00 1.4 3 Sudoeste 15 Sudoeste 1.6 -- -- 97
2018-01-13 09:00:00 1.7 7 Oeste 21 Sur 1.6 -- -- 93
2018-01-13 08:00:00 2.7 8 Noroeste 23 Sur 0 -- -- 78
2018-01-13 07:00:00 3.9 10 Sudoeste 27 Sudoeste 0 -- -- 57
2018-01-13 06:00:00 4 10 Sudoeste 25 Sudoeste 0 -- -- 50
2018-01-13 05:00:00 3.3 7 Oeste 17 Sudoeste 0 -- -- 61
2018-01-13 04:00:00 3.5 3 Oeste 23 Sudoeste 0 -- -- 57
2018-01-13 03:00:00 5.1 9 Sur 25 Noroeste 0 -- -- 41
2018-01-13 02:00:00 4.3 5 Sudoeste 21 Sudoeste 0 -- -- 52
2018-01-13 01:00:00 4.2 3 Sudoeste 18 Sudoeste 0 -- -- 64
2018-01-13 00:00:00 2.4 4 Sur 9 Sudeste 0 -- -- 60
2018-01-12 23:00:00 1.7 3 Oeste 8 Noroeste 0 -- -- 68
2018-01-12 22:00:00 1.6 2 Oeste 6 Sudoeste 0 -- -- 71
2018-01-12 21:00:00 1.5 3 Oeste 6 Oeste 0 -- -- 75
2018-01-12 20:00:00 1.5 0 Calma 5 Oeste 0 -- -- 75
2018-01-12 19:00:00 1.6 3 Oeste 5 Oeste 0 -- -- 78
2018-01-12 18:00:00 2.5 2 Sudoeste 6 Este 0 -- -- 79
2018-01-12 17:00:00 3.7 2 Oeste 5 Este 0 -- -- 76
2018-01-12 16:00:00 4.7 0 Calma 5 Noroeste 0 -- -- 69
2018-01-12 15:00:00 5.3 3 Oeste 5 Noroeste 0 -- -- 67
2018-01-12 14:00:00 5.5 0 Calma 6 Este 0 -- -- 63
2018-01-12 13:00:00 4.6 2 Sur 6 Este 0 -- -- 62
2018-01-12 12:00:00 2.5 3 Noroeste 6 Noroeste 0 -- -- 70
2018-01-12 11:00:00 0.2 0 Calma 8 Este 0 -- -- 80
2018-01-12 10:00:00 -1.2 2 Oeste 5 Sur 0 -- -- 88
2018-01-12 09:00:00 -2.5 0 Calma 6 Oeste 0 -- -- 95
2018-01-12 08:00:00 -2.8 4 Oeste 7 Sudoeste 0 -- -- 94
2018-01-12 07:00:00 -2.2 0 Calma 4 Oeste 0 -- -- 97
2018-01-12 06:00:00 -1.8 0 Calma 5 Oeste 0 -- -- 96
2018-01-12 05:00:00 -1.4 2 Oeste 5 Sudoeste 0 -- -- 95
2018-01-12 04:00:00 -1 0 Calma 5 Oeste 0 -- -- 96
2018-01-12 03:00:00 -0.4 0 Calma 7 Sur 0 -- -- 96
2018-01-12 02:00:00 -0.1 2 Noroeste 6 Sudoeste 0 -- -- 96
2018-01-12 01:00:00 0.3 2 Sur 8 Oeste 0 -- -- 96
2018-01-12 00:00:00 0.7 2 Sur 8 Sudoeste 0 -- -- 96
2018-01-11 23:00:00 1.6 2 Oeste 17 Norte 0 -- -- 92
2018-01-11 22:00:00 4.7 12 Norte 40 Norte 0.4 -- -- 70
2018-01-11 21:00:00 3.9 10 Noroeste 38 Noroeste 1.2 -- -- 81
2018-01-11 20:00:00 2.6 5 Oeste 21 Sudoeste 1.8 -- -- 90
2018-01-11 19:00:00 1.9 4 Oeste 21 Sudoeste 1.8 -- -- 92
2018-01-11 18:00:00 1.2 2 Noroeste 25 Oeste 1.4 -- -- 94
2018-01-11 17:00:00 1.9 8 Sudoeste 24 Sudoeste 1.2 -- -- 87
2018-01-11 16:00:00 1.7 8 Oeste 31 Sudoeste 0.8 -- -- 85
2018-01-11 15:00:00 2.1 9 Sudoeste 22 Sudoeste 0.4 -- -- 78
2018-01-11 14:00:00 3.1 6 Este 40 Noroeste 0.4 -- -- 73
2018-01-11 13:00:00 2.5 6 Sur 32 Norte 1.6 -- -- 78
2018-01-11 12:00:00 0.9 8 Sudoeste 30 Sudoeste 0.6 -- -- 82
2018-01-11 11:00:00 0 0 Calma 8 Sur 1 -- -- 97
2018-01-11 10:00:00 -0.4 3 Sur 11 Sur 1.8 -- -- 98
2018-01-11 09:00:00 -0.7 4 Sudeste 14 Sur 1.6 -- -- 98
2018-01-11 08:00:00 -0.9 2 Noroeste 8 Este 1.4 -- -- 98
2018-01-11 07:00:00 -0.9 0 Calma 8 Sur 1.4 -- -- 98
2018-01-11 06:00:00 -0.6 3 Sudeste 11 Sur 1.8 -- -- 96
2018-01-11 05:00:00 -0.4 5 Este 17 Sur 1 -- -- 95
2018-01-11 04:00:00 -0.1 5 Sudeste 23 Sur 0.6 -- -- 91
2018-01-11 03:00:00 0.5 5 Sudeste 18 Sur 0.6 -- -- 83
2018-01-11 02:00:00 1.4 6 Este 24 Sudoeste 0.2 -- -- 72
2018-01-11 01:00:00 1.8 5 Sudeste 20 Sur 0.2 -- -- 69
2018-01-11 00:00:00 1.7 6 Sudeste 20 Sur 0 -- -- 71
2018-01-10 23:00:00 2.2 7 Sudeste 21 Sur 0 -- -- 60
2018-01-10 22:00:00 2.1 8 Sudeste 26 Sudoeste 0 -- -- 68
2018-01-10 21:00:00 1.8 8 Sudeste 27 Sudoeste 0 -- -- 71
2018-01-10 20:00:00 1.6 8 Nordeste 36 Noroeste 0 -- -- 66
2018-01-10 19:00:00 1.6 6 Sudeste 45 Noroeste 0.2 -- -- 73
2018-01-10 18:00:00 2.2 5 Sudeste 30 Noroeste 0.8 -- -- 67
2018-01-10 17:00:00 3.5 8 Oeste 23 Noroeste 0.2 -- -- 75
2018-01-10 16:00:00 5.1 6 Sudeste 45 Este 0 -- -- 67
2018-01-10 15:00:00 5 11 Sudeste 30 Sur 0.2 -- -- 68
2018-01-10 14:00:00 4.4 9 Sudeste 35 Sur 0.2 -- -- 76
2018-01-10 13:00:00 3.4 5 Este 38 Noroeste 0.2 -- -- 80
2018-01-10 12:00:00 4.9 10 Nordeste 31 Sur 0 -- -- 61
2018-01-10 11:00:00 4.1 13 Sudoeste 32 Sudoeste 0 -- -- 66
2018-01-10 10:00:00 2.9 13 Sudoeste 32 Oeste 0 -- -- 69
2018-01-10 09:00:00 2.2 8 Sudoeste 22 Sudoeste 0 -- -- 70
2018-01-10 08:00:00 2.4 8 Oeste 25 Sudoeste 0 -- -- 70
2018-01-10 07:00:00 0.6 2 Sudoeste 10 Sudoeste 0 -- -- 84
2018-01-10 06:00:00 0.8 2 Oeste 6 Oeste 0 -- -- 90
2018-01-10 05:00:00 1 4 Noroeste 9 Noroeste 0 -- -- 91
2018-01-10 04:00:00 0.7 3 Noroeste 8 Noroeste 0 -- -- 91
2018-01-10 03:00:00 1.4 0 Calma 13 Sur 0 -- -- 87
2018-01-10 02:00:00 1.9 6 Sudoeste 14 Sur 0 -- -- 83
2018-01-10 01:00:00 1.6 2 Oeste 17 Noroeste 0 -- -- 85
2018-01-10 00:00:00 1.4 3 Oeste 17 Oeste 0 -- -- 87
2018-01-09 23:00:00 2.4 4 Oeste 26 Oeste 0 -- -- 78
2018-01-09 22:00:00 2.8 10 Sudoeste 27 Oeste 0 -- -- 74
2018-01-09 21:00:00 2.4 8 Oeste 22 Oeste 0 -- -- 76
2018-01-09 20:00:00 2.5 9 Oeste 24 Noroeste 0 -- -- 77
2018-01-09 19:00:00 2.6 10 Sur 31 Sur 0 -- -- 77
2018-01-09 18:00:00 3.3 12 Sur 35 Sudoeste 0 -- -- 74
2018-01-09 17:00:00 3.8 17 Sur 41 Sur 0 -- -- 72
2018-01-09 16:00:00 3.3 13 Sur 41 Sur 0 -- -- 76
2018-01-09 15:00:00 2.6 11 Sur 33 Sur 1.8 -- -- 84
2018-01-09 14:00:00 2.5 7 Sudeste 23 Norte 2.4 -- -- 88
2018-01-09 13:00:00 1.5 6 Sudeste 31 Sur 0.4 -- -- 88
2018-01-09 12:00:00 3.4 12 Sur 35 Sudoeste 0 -- -- 68
2018-01-09 11:00:00 2.8 9 Sur 37 Sur 0 -- -- 64
2018-01-09 10:00:00 3.3 8 Sur 37 Sudeste 0 -- -- 55
2018-01-09 09:00:00 2.6 13 Sur 39 Sur 0 -- -- 68
2018-01-09 08:00:00 2.8 14 Sur 34 Sudoeste 0 -- -- 64
2018-01-09 07:00:00 2.5 12 Sur 37 Sudoeste 0 -- -- 70
2018-01-09 06:00:00 3.3 15 Sur 36 Sur 0 -- -- 68
2018-01-09 05:00:00 2.3 6 Sudoeste 24 Sudoeste 0 -- -- 77
2018-01-09 04:00:00 0.9 3 Sudoeste 10 Sudoeste 0 -- -- 88
2018-01-09 03:00:00 2.9 7 Sur 29 Sur 0 -- -- 78
2018-01-09 02:00:00 1.9 8 Oeste 23 Sur 0 -- -- 85
2018-01-09 01:00:00 0.4 0 Calma 4 Sur 0 -- -- 94
2018-01-09 00:00:00 0.6 0 Calma 5 Oeste 0 -- -- 94
2018-01-08 23:00:00 1.1 0 Calma 6 Sudoeste 0 -- -- 93
2018-01-08 22:00:00 1.3 0 Calma 8 Noroeste 0 -- -- 95
2018-01-08 21:00:00 1.1 3 Oeste 8 Este 0 -- -- 95
2018-01-08 20:00:00 0.4 3 Oeste 6 Oeste 0 -- -- 95
2018-01-08 19:00:00 1.1 2 Sudeste 8 Oeste 0 -- -- 92
2018-01-08 18:00:00 1.3 0 Calma 6 Noroeste 0 -- -- 90
2018-01-08 17:00:00 2.3 2 Sudoeste 5 Oeste 0 -- -- 87
2018-01-08 16:00:00 4.4 0 Calma 12 Sudoeste 0 -- -- 73
2018-01-08 15:00:00 6.6 0 Calma 7 Sudeste 0 -- -- 62
2018-01-08 14:00:00 5.6 0 Calma 4 Sudeste 0 -- -- 73
2018-01-08 13:00:00 3.4 0 Calma 4 Noroeste 0 -- -- 83
2018-01-08 12:00:00 2.4 0 Calma 2 Este 0 -- -- 86
2018-01-08 11:00:00 1 0 Calma 3 Noroeste 0 -- -- 91
2018-01-08 10:00:00 -1.2 0 Calma 5 Oeste 0 -- -- 96
2018-01-08 09:00:00 -2.1 0 Calma 5 Sudoeste 0 -- -- 96
2018-01-08 08:00:00 -2.2 0 Calma 5 Oeste 0 -- -- 97
2018-01-08 07:00:00 -2.1 0 Calma 5 Oeste 0 -- -- 97
2018-01-08 06:00:00 -2.2 2 Sudoeste 6 Noroeste 0 -- -- 99
2018-01-08 05:00:00 -1.9 0 Calma 8 Nordeste 0 -- -- 100
2018-01-08 04:00:00 -1.5 2 Oeste 4 Noroeste 0 -- -- 100
2018-01-08 03:00:00 -1 0 Calma 4 Oeste 0 -- -- 100
2018-01-08 02:00:00 -1 2 Sur 4 Noroeste 0 -- -- 100
2018-01-08 01:00:00 -0.9 0 Calma 4 Noroeste 0 -- -- 100
2018-01-08 00:00:00 -0.7 0 Calma 3 Sur 0 -- -- 100
2018-01-07 23:00:00 -0.3 0 Calma 4 Sur 0 -- -- 100
2018-01-07 22:00:00 -0.1 0 Calma 4 Oeste 0 -- -- 100
2018-01-07 21:00:00 0 0 Calma 4 Oeste 0 -- -- 100
2018-01-07 20:00:00 0.2 3 Noroeste 5 Noroeste 0 -- -- 100
2018-01-07 19:00:00 0.3 2 Sudoeste 5 Oeste 0 -- -- 100
2018-01-07 18:00:00 0.4 2 Oeste 5 Oeste 1 -- -- 99
2018-01-07 17:00:00 1.1 0 Calma 7 Oeste 0.8 -- -- 96
2018-01-07 16:00:00 2.3 0 Calma 5 Oeste 0 -- -- 93
2018-01-07 15:00:00 2.3 5 Sudoeste 10 Sudoeste 0 -- -- 91
2018-01-07 14:00:00 2.9 2 Sudoeste 5 Sudoeste 0 -- -- 90
2018-01-07 13:00:00 3.8 2 Sur 8 Norte 0 -- -- 86
2018-01-07 12:00:00 2.3 3 Sudeste 5 Sudoeste 0.2 -- -- 92
2018-01-07 11:00:00 0.6 0 Calma -- -- 0.6 -- -- 99
2018-01-07 10:00:00 -0.3 0 Calma -- -- 0.2 -- -- 100
2018-01-07 09:00:00 -0.5 0 Calma -- -- 0 -- -- 100
2018-01-07 08:00:00 -0.6 0 Calma -- -- 0 -- -- 100
2018-01-07 07:00:00 -0.6 0 Calma 8 Norte 0.2 -- -- 100
2018-01-07 06:00:00 -0.7 0 Calma 8 Norte 1 -- -- 100
2018-01-07 05:00:00 -0.8 2 Norte 4 Norte 1.4 -- -- 100
2018-01-07 04:00:00 -0.9 0 Calma 4 Norte 1.6 -- -- 100
2018-01-07 03:00:00 -0.9 2 Norte 4 Norte 1.6 -- -- 100
2018-01-07 02:00:00 -0.7 2 Norte 9 Norte 1.2 -- -- 100
2018-01-07 01:00:00 -0.9 0 Calma 2 Norte 1.8 -- -- 100
2018-01-07 00:00:00 -1 0 Calma 5 Sudoeste 1.6 -- -- 99
2018-01-06 23:00:00 -0.9 0 Calma 3 Oeste 0.4 -- -- 99
2018-01-06 22:00:00 -1 0 Calma 5 Oeste 0.2 -- -- 98
2018-01-06 21:00:00 -0.9 0 Calma 8 Sudoeste 1.2 -- -- 99
2018-01-06 20:00:00 -0.6 0 Calma 4 Sudoeste 1.2 -- -- 99
2018-01-06 19:00:00 -0.3 0 Calma 3 Este 0.6 -- -- 98
2018-01-06 18:00:00 -0.2 0 Calma 3 Sudoeste 0.2 -- -- 96
2018-01-06 17:00:00 0 0 Calma 4 Noroeste 0 -- -- 94
2018-01-06 16:00:00 0 0 Calma 3 Nordeste 0.4 -- -- 95
2018-01-06 15:00:00 0.1 0 Calma 5 Noroeste 0.2 -- -- 92
2018-01-06 14:00:00 0.2 3 Noroeste 5 Noroeste 0 -- -- 89
2018-01-06 13:00:00 -0.1 2 Noroeste 4 Este 0.2 -- -- 90
2018-01-06 12:00:00 0 3 Sur 8 Sudoeste 0 -- -- 94
2018-01-06 11:00:00 -0.2 0 Calma 3 Oeste 0 -- -- 89
2018-01-06 10:00:00 -0.7 0 Calma 2 Sudoeste 0 -- -- 97
2018-01-06 09:00:00 -0.8 0 Calma 5 Noroeste 0.4 -- -- 98
2018-01-06 08:00:00 -0.6 0 Calma 5 Sudeste 0 -- -- 99
2018-01-06 07:00:00 -0.5 3 Sur 8 Sur 0 -- -- 100
2018-01-06 06:00:00 -0.3 4 Sudoeste 10 Sudoeste 0 -- -- 100
2018-01-06 05:00:00 0 0 Calma 5 Sudoeste 0 -- -- 100
2018-01-06 04:00:00 0.1 0 Calma 3 Sudeste 0 -- -- 100
2018-01-06 03:00:00 0 0 Calma 5 Sur 0 -- -- 100
2018-01-06 02:00:00 0.1 0 Calma 3 Sudoeste 0.2 -- -- 100
2018-01-06 01:00:00 0.3 2 Este 3 Este 0.4 -- -- 100
2018-01-06 00:00:00 0.3 0 Calma 7 Sudoeste 0.8 -- -- 100
2018-01-05 23:00:00 1.2 3 Este 10 Nordeste 0 -- -- 99
2018-01-05 22:00:00 1.8 0 Calma 6 Sudoeste 0.6 -- -- 99
2018-01-05 21:00:00 2.3 0 Calma 7 Sudoeste 0.4 -- -- 99
2018-01-05 20:00:00 2.7 0 Calma 6 Sur 0 -- -- 99
2018-01-05 19:00:00 2.8 0 Calma 8 Sudoeste 0.6 -- -- 98
2018-01-05 18:00:00 3.5 0 Calma 6 Sudeste 1.6 -- -- 97
2018-01-05 17:00:00 4 2 Oeste 11 Norte 1.2 -- -- 95
2018-01-05 16:00:00 5 0 Calma 11 Sur 2.8 -- -- 92
2018-01-05 15:00:00 6.5 4 Sur 13 Sur 0 -- -- 86
2018-01-05 14:00:00 7.5 4 Sudeste 18 Sudeste 0 -- -- 79
2018-01-05 13:00:00 7.1 6 Sur 17 Oeste 0 -- -- 78
2018-01-05 12:00:00 5.5 4 Sur 13 Nordeste 0.2 -- -- 92
2018-01-05 11:00:00 5 4 Sudeste 24 Noroeste 1.8 -- -- 92
2018-01-05 10:00:00 5.5 3 Sur 8 Noroeste 1.6 -- -- 97
2018-01-05 09:00:00 5.8 0 Calma 13 Nordeste 1.6 -- -- 94
2018-01-05 08:00:00 7.2 4 Nordeste 20 Noroeste 0.4 -- -- 81
2018-01-05 07:00:00 7.9 6 Sudeste 28 Sur 0 -- -- 73
2018-01-05 06:00:00 8.3 10 Norte 42 Este 0 -- -- 69
2018-01-05 05:00:00 8.2 9 Este 38 Noroeste 0 -- -- 69
2018-01-05 04:00:00 8.5 12 Nordeste 35 Oeste 0 -- -- 69
2018-01-05 03:00:00 8.9 13 Sur 42 Sur 0 -- -- 65
2018-01-05 02:00:00 9.5 12 Sur 26 Sudeste 0 -- -- 60
2018-01-05 01:00:00 9.1 7 Sudeste 24 Sudoeste 0 -- -- 64
2018-01-05 00:00:00 8.9 7 Este 21 Sur 0 -- -- 67
2018-01-04 23:00:00 8.8 5 Sudeste 21 Sur 0 -- -- 72
2018-01-04 22:00:00 8.7 4 Sudeste 22 Oeste 0 -- -- 70
2018-01-04 21:00:00 9.1 4 Sur 22 Sudoeste 0 -- -- 67
2018-01-04 20:00:00 9.6 6 Sur 24 Sur 0 -- -- 66
2018-01-04 19:00:00 10.1 9 Sur 24 Sur 0 -- -- 64
2018-01-04 18:00:00 10.8 4 Sudoeste 28 Sudoeste 0 -- -- 57
2018-01-04 17:00:00 10.6 9 Sur 26 Sur 0 -- -- 63
2018-01-04 16:00:00 11.1 7 Sudeste 27 Sudoeste 0 -- -- 60
2018-01-04 15:00:00 11.7 12 Sur 28 Sur 0 -- -- 56
2018-01-04 14:00:00 11.6 8 Sur 27 Sur 0 -- -- 58
2018-01-04 13:00:00 11.5 14 Sur 31 Sur 0 -- -- 59
2018-01-04 12:00:00 10.6 7 Sur 30 Sur 0 -- -- 63
2018-01-04 11:00:00 10.7 9 Sur 28 Sudoeste 0 -- -- 66
2018-01-04 10:00:00 10.4 6 Sur 30 Sudoeste 0 -- -- 68
2018-01-04 09:00:00 9.6 7 Sur 24 Noroeste 0 -- -- 69
2018-01-04 08:00:00 9.4 5 Sudeste 24 Oeste 0 -- -- 71
2018-01-04 07:00:00 10 5 Sur 24 Sudoeste 0 -- -- 70
2018-01-04 06:00:00 10.5 10 Sudoeste 37 Sur 0 -- -- 68
2018-01-04 05:00:00 10.7 9 Oeste 29 Oeste 0 -- -- 68
2018-01-04 04:00:00 11 10 Sudoeste 28 Sudoeste 0 -- -- 69
2018-01-04 03:00:00 11 9 Sur 25 Sudeste 0 -- -- 73
2018-01-04 02:00:00 11 9 Sudoeste 27 Sudoeste 0 -- -- 71
2018-01-04 01:00:00 11.5 12 Sudoeste 31 Sudoeste 0 -- -- 68
2018-01-04 00:00:00 12.9 6 Sur 26 Sur 0 -- -- 61
2018-01-03 23:00:00 13.1 6 Sur 31 Noroeste 0 -- -- 60
2018-01-03 22:00:00 13.3 6 Noroeste 20 Norte 0 -- -- 60
2018-01-03 21:00:00 13.4 6 Sur 24 Sur 0 -- -- 63
2018-01-03 20:00:00 13.6 7 Sur 22 Sur 0 -- -- 65
2018-01-03 19:00:00 13.8 7 Sur 23 Sur 0 -- -- 62
2018-01-03 18:00:00 13.9 5 Sudeste 32 Sur 0 -- -- 64
2018-01-03 17:00:00 13 5 Sudeste 18 Sur 0 -- -- 71
2018-01-03 16:00:00 12.9 6 Sur 15 Sur 0 -- -- 73
2018-01-03 15:00:00 13.2 0 Calma 16 Sudoeste 0 -- -- 71
2018-01-03 14:00:00 12.9 6 Sur 23 Sur 0 -- -- 73
2018-01-03 13:00:00 13.8 8 Sur 27 Sur 0 -- -- 68
2018-01-03 12:00:00 14.1 11 Sudoeste 27 Sudoeste 0 -- -- 66
2018-01-03 11:00:00 14 9 Sur 30 Sudoeste 0 -- -- 66
2018-01-03 10:00:00 13.5 6 Sur 25 Sudoeste 0 -- -- 65
2018-01-03 09:00:00 13 3 Sur 21 Oeste 0 -- -- 65
2018-01-03 08:00:00 13.6 5 Este 24 Noroeste 0 -- -- 65
2018-01-03 07:00:00 14.3 7 Nordeste 31 Sudoeste 0 -- -- 61
2018-01-03 06:00:00 13.4 6 Sur 22 Sudoeste 0 -- -- 65
2018-01-03 05:00:00 13.8 7 Sur 29 Noroeste 0 -- -- 62
2018-01-03 04:00:00 11.9 6 Sudeste 17 Sur 0 -- -- 70
2018-01-03 03:00:00 9 3 Noroeste 10 Sudoeste 0 -- -- 86
2018-01-03 02:00:00 8.5 0 Calma 9 Oeste 0 -- -- 88
2018-01-03 01:00:00 8.1 3 Sur 8 Noroeste 0 -- -- 89
2018-01-03 00:00:00 8.2 3 Noroeste 11 Noroeste 0 -- -- 88
2018-01-02 23:00:00 8.6 0 Calma 8 Sudoeste 0 -- -- 87
2018-01-02 22:00:00 9.4 4 Sudoeste 9 Sudoeste 0 -- -- 86
2018-01-02 21:00:00 9.5 3 Sudoeste 14 Sudeste 0 -- -- 86
2018-01-02 20:00:00 9 3 Sur 10 Oeste 0 -- -- 89
2018-01-02 19:00:00 9 2 Noroeste 26 Sudoeste 0 -- -- 87
2018-01-02 18:00:00 10.1 4 Sur 24 Sur 0 -- -- 81
2018-01-02 17:00:00 10.5 10 Sur 31 Sudoeste 0 -- -- 78
2018-01-02 16:00:00 10.2 8 Sur 28 Sur 0 -- -- 79
2018-01-02 15:00:00 11.7 9 Sur 23 Sur 0.4 -- -- 84
2018-01-02 14:00:00 11.3 5 Sur 21 Sudeste 1 -- -- 90
2018-01-02 13:00:00 11.2 6 Sur 30 Oeste 2 -- -- 86
2018-01-02 12:00:00 10.7 8 Sur 26 Sudoeste 1 -- -- 85
2018-01-02 11:00:00 9.9 13 Sudoeste 26 Sur 1.2 -- -- 86
2018-01-02 10:00:00 7.3 3 Oeste 18 Sudoeste 1.6 -- -- 98
2018-01-02 09:00:00 7.1 5 Sudoeste 13 Sudoeste 0.6 -- -- 96
2018-01-02 08:00:00 6.4 4 Oeste 9 Oeste 0.2 -- -- 100
2018-01-02 07:00:00 5.9 3 Sudoeste 12 Noroeste 1.2 -- -- 97
2018-01-02 06:00:00 6.6 3 Sudoeste 26 Sur 0.8 -- -- 92
2018-01-02 05:00:00 7.3 8 Sur 25 Sudeste 0 -- -- 78
2018-01-02 04:00:00 7.2 6 Sur 20 Sur 0 -- -- 77
2018-01-02 03:00:00 6.5 5 Sur 15 Sudoeste 0 -- -- 90
2018-01-02 02:00:00 5.4 0 Calma 5 Sudoeste 0 -- -- 98
2018-01-02 01:00:00 5.6 2 Sudoeste 7 Sudoeste 0 -- -- 98
2018-01-02 00:00:00 5.9 3 Oeste 7 Oeste 0.2 -- -- 97
2018-01-01 23:00:00 7 3 Oeste 42 Norte 1.4 -- -- 90
2018-01-01 22:00:00 8.8 7 Norte 44 Noroeste 1.2 -- -- 70
2018-01-01 21:00:00 8.9 13 Noroeste 44 Noroeste 1.4 -- -- 72
2018-01-01 20:00:00 8.3 4 Sudeste 33 Noroeste 0.8 -- -- 82
2018-01-01 19:00:00 8.5 9 Sur 36 Noroeste 0.6 -- -- 76
2018-01-01 18:00:00 7.2 8 Sudeste 21 Sudoeste 1.8 -- -- 87
2018-01-01 17:00:00 7.2 9 Sur 31 Sudoeste 2 -- -- 83
2018-01-01 16:00:00 8.6 9 Sudeste 35 Sudeste 0.4 -- -- 75
2018-01-01 15:00:00 9.2 9 Sudeste 42 Nordeste 0 -- -- 61
2018-01-01 14:00:00 8.5 9 Sudeste 41 Sudeste 0 -- -- 66
2018-01-01 13:00:00 8.4 13 Sudeste 42 Sur 0 -- -- 63
2018-01-01 12:00:00 6.7 13 Sur 36 Sur 0 -- -- 69
2018-01-01 11:00:00 5.3 11 Sudeste 33 Sudeste 0 -- -- 72
2018-01-01 10:00:00 4.3 10 Este 28 Sudeste 0 -- -- 73
2018-01-01 09:00:00 3.4 6 Sudeste 29 Sur 0 -- -- 72
2018-01-01 08:00:00 3.1 7 Sudeste 22 Oeste 0 -- -- 71
2018-01-01 07:00:00 2.3 5 Sudeste 22 Sur 0 -- -- 72
2018-01-01 06:00:00 1.2 7 Sur 21 Sur 0 -- -- 77
2018-01-01 05:00:00 0.2 3 Oeste 9 Oeste 0 -- -- 78
2018-01-01 04:00:00 0.3 4 Oeste 10 Sudoeste 0 -- -- 78
2018-01-01 03:00:00 1.2 3 Sudoeste 9 Sudoeste 0 -- -- 72
2018-01-01 02:00:00 2.7 3 Sudoeste 19 Oeste 0 -- -- 66
2018-01-01 01:00:00 3.8 6 Sudoeste 24 Sur 0 -- -- 55
2018-01-01 00:00:00 3.7 6 Sudeste 20 Sudeste 0 -- -- 58
2017-12-31 23:00:00 3.6 5 Sudeste 30 Sudoeste 0 -- -- 66
2017-12-31 22:00:00 2.7 6 Sur 26 Sudoeste 0 -- -- 64
2017-12-31 21:00:00 3 6 Sudeste 23 Sur 0 -- -- 65
2017-12-31 20:00:00 3.4 7 Sudeste 32 Noroeste 0 -- -- 60
2017-12-31 19:00:00 3 10 Sur 38 Noroeste 0.4 -- -- 54
2017-12-31 18:00:00 1.5 6 Este 27 Noroeste 1.6 -- -- 88
2017-12-31 17:00:00 5.1 6 Este 35 Sudoeste 0 -- -- 64
2017-12-31 16:00:00 3.5 7 Sur 39 Noroeste 3.2 -- -- 85
2017-12-31 15:00:00 5.9 6 Este 39 Noroeste 2.4 -- -- 82
2017-12-31 14:00:00 7.2 3 Sur 24 Este 0.6 -- -- 86
2017-12-31 13:00:00 8.2 11 Sudeste 36 Este 0 -- -- 72
2017-12-31 12:00:00 9 13 Nordeste 37 Este 0 -- -- 65
2017-12-31 11:00:00 8.8 10 Sudeste 43 Norte 0 -- -- 66
2017-12-31 10:00:00 8.8 11 Oeste 48 Noroeste 0 -- -- 62
2017-12-31 09:00:00 8.4 14 Sur 41 Sur 0 -- -- 61
2017-12-31 08:00:00 8.3 9 Este 31 Sur 0 -- -- 63
2017-12-31 07:00:00 8 13 Noroeste 38 Noroeste 0 -- -- 64
2017-12-31 06:00:00 8.5 12 Sudeste 35 Nordeste 0 -- -- 61
2017-12-31 05:00:00 8.1 7 Este 42 Sur 0 -- -- 67
2017-12-31 04:00:00 7.7 11 Sur 33 Sur 0 -- -- 69
2017-12-31 03:00:00 7.6 12 Sur 41 Sur 0 -- -- 70
2017-12-31 02:00:00 8.8 12 Sur 33 Sur 0 -- -- 62
2017-12-31 01:00:00 8.9 15 Sur 41 Sudoeste 0 -- -- 63